createdAt,value
2017-09-25T00:00:46.627Z,4.57
2017-09-25T00:03:14.965Z,3.57
2017-09-25T00:05:43.296Z,4.37
2017-09-25T00:08:11.652Z,4.53
2017-09-25T00:10:40.759Z,4.50
2017-09-25T00:13:09.861Z,5.33
2017-09-25T00:15:38.994Z,5.65
2017-09-25T00:18:07.335Z,4.33
2017-09-25T00:20:36.442Z,3.70
2017-09-25T00:23:04.818Z,5.00
2017-09-25T00:25:33.152Z,5.97
2017-09-25T00:28:01.492Z,5.00
2017-09-25T00:30:29.859Z,3.20
2017-09-25T00:32:58.961Z,5.20
2017-09-25T00:35:27.305Z,5.87
2017-09-25T00:37:55.672Z,4.67
2017-09-25T00:40:24.038Z,5.53
2017-09-25T00:42:52.362Z,3.73
2017-09-25T00:45:22.419Z,3.80
2017-09-25T00:47:50.747Z,3.90
2017-09-25T00:50:19.084Z,3.20
2017-09-25T00:53:05.387Z,3.27
2017-09-25T00:55:51.881Z,3.93
2017-09-25T00:58:20.263Z,4.30
2017-09-25T01:01:06.351Z,5.30
2017-09-25T01:03:52.415Z,3.67
2017-09-25T01:06:30.692Z,2.27
2017-09-25T01:08:59.056Z,3.37
2017-09-25T01:11:27.386Z,3.90
2017-09-25T01:13:56.513Z,3.80
2017-09-25T01:16:24.890Z,2.93
2017-09-25T01:18:53.989Z,3.50
2017-09-25T01:21:23.090Z,4.90
2017-09-25T01:23:52.218Z,2.93
2017-09-25T01:26:20.553Z,3.73
2017-09-25T01:28:49.651Z,3.43
2017-09-25T01:31:18.805Z,3.13
2017-09-25T01:33:47.173Z,3.57
2017-09-25T01:36:15.502Z,3.43
2017-09-25T01:38:43.874Z,3.03
2017-09-25T01:41:12.209Z,3.10
2017-09-25T01:43:40.546Z,2.30
2017-09-25T01:46:09.667Z,2.83
2017-09-25T01:48:37.998Z,3.97
2017-09-25T01:51:06.331Z,3.70
2017-09-25T01:53:34.691Z,3.33
2017-09-25T01:56:03.796Z,3.50
2017-09-25T01:58:32.895Z,5.67
2017-09-25T02:01:02.030Z,4.93
2017-09-25T02:03:30.362Z,2.87
2017-09-25T02:05:59.466Z,4.13
2017-09-25T02:08:28.600Z,6.40
2017-09-25T02:10:56.933Z,4.13
2017-09-25T02:13:26.035Z,4.57
2017-09-25T02:15:55.156Z,4.87
2017-09-25T02:18:23.483Z,3.62
2017-09-25T02:20:51.814Z,5.00
2017-09-25T02:23:20.236Z,6.33
2017-09-25T02:25:48.576Z,2.50
2017-09-25T02:28:16.919Z,4.23
2017-09-25T02:30:45.276Z,3.37
2017-09-25T02:33:13.611Z,3.22
2017-09-25T02:35:41.961Z,3.10
2017-09-25T02:38:10.332Z,4.77
2017-09-25T02:40:38.681Z,3.42
2017-09-25T02:43:07.060Z,5.70
2017-09-25T02:45:35.422Z,3.80
2017-09-25T02:48:03.783Z,3.47
2017-09-25T02:50:32.878Z,3.77
2017-09-25T02:53:02.005Z,4.13
2017-09-25T02:55:30.343Z,2.23
2017-09-25T02:57:59.475Z,2.50
2017-09-25T03:00:27.875Z,3.50
2017-09-25T03:02:56.199Z,2.20
2017-09-25T03:05:24.548Z,3.07
2017-09-25T03:07:52.925Z,2.87
2017-09-25T03:10:21.271Z,1.97
2017-09-25T03:12:49.613Z,3.00
2017-09-25T03:15:17.996Z,2.90
2017-09-25T03:17:46.353Z,2.62
2017-09-25T03:20:14.722Z,2.00
2017-09-25T03:22:43.100Z,1.80
2017-09-25T03:25:11.434Z,4.20
2017-09-25T03:27:40.544Z,2.20
2017-09-25T03:30:09.694Z,1.50
2017-09-25T03:32:38.032Z,3.03
2017-09-25T03:35:06.372Z,1.63
2017-09-25T03:37:34.727Z,2.20
2017-09-25T03:40:03.050Z,1.50
2017-09-25T03:42:32.148Z,2.30
2017-09-25T03:45:01.291Z,1.20
2017-09-25T03:47:29.627Z,1.77
2017-09-25T03:49:58.724Z,1.90
2017-09-25T03:52:27.847Z,1.73
2017-09-25T03:54:56.185Z,1.70
2017-09-25T03:57:24.520Z,3.20
2017-09-25T03:59:52.902Z,1.77
2017-09-25T04:02:21.231Z,1.93
2017-09-25T04:04:49.567Z,4.43
2017-09-25T04:07:17.936Z,1.50
2017-09-25T04:09:46.282Z,1.43
2017-09-25T04:12:15.391Z,1.30
2017-09-25T04:14:44.535Z,1.70
2017-09-25T04:17:12.875Z,1.50
2017-09-25T04:19:41.984Z,1.50
2017-09-25T04:22:10.359Z,1.20
2017-09-25T04:24:38.710Z,1.37
2017-09-25T04:27:07.059Z,1.33
2017-09-25T04:29:36.348Z,1.40
2017-09-25T04:32:04.675Z,1.20
2017-09-25T04:34:33.006Z,1.90
2017-09-25T04:37:01.387Z,1.10
2017-09-25T04:39:29.735Z,1.40
2017-09-25T04:41:58.846Z,1.27
2017-09-25T04:44:27.206Z,2.07
2017-09-25T04:46:56.331Z,0.90
2017-09-25T04:49:24.675Z,1.48
2017-09-25T04:51:53.826Z,1.40
2017-09-25T04:54:22.162Z,1.80
2017-09-25T04:56:51.260Z,2.10
2017-09-25T04:59:20.397Z,2.42
2017-09-25T05:01:48.743Z,1.73
2017-09-25T05:04:17.840Z,2.63
2017-09-25T05:06:46.977Z,1.73
2017-09-25T05:09:15.311Z,2.10
2017-09-25T05:11:44.412Z,1.37
2017-09-25T05:14:13.538Z,1.83
2017-09-25T05:16:41.881Z,4.00
2017-09-25T05:19:10.319Z,1.70
2017-09-25T05:21:38.684Z,1.80
2017-09-25T05:24:07.025Z,1.30
2017-09-25T05:26:36.129Z,3.17
2017-09-25T05:29:05.271Z,2.35
2017-09-25T05:31:33.615Z,1.80
2017-09-25T05:34:02.721Z,2.47
2017-09-25T05:36:31.855Z,1.90
2017-09-25T05:39:00.197Z,1.57
2017-09-25T05:41:28.564Z,1.57
2017-09-25T05:43:57.856Z,2.00
2017-09-25T05:46:26.190Z,2.10
2017-09-25T05:48:54.521Z,2.60
2017-09-25T05:51:22.884Z,4.70
2017-09-25T05:53:51.219Z,2.67
2017-09-25T05:56:19.535Z,2.12
2017-09-25T05:58:47.895Z,2.60
2017-09-25T06:01:16.219Z,2.90
2017-09-25T06:03:44.562Z,2.67
2017-09-25T06:06:12.918Z,3.83
2017-09-25T06:08:41.383Z,2.67
2017-09-25T06:11:10.476Z,3.00
2017-09-25T06:13:39.608Z,2.73
2017-09-25T06:16:07.976Z,3.57
2017-09-25T06:18:36.302Z,2.70
2017-09-25T06:21:04.680Z,3.40
2017-09-25T06:23:33.026Z,2.43
2017-09-25T06:26:01.400Z,2.93
2017-09-25T06:28:29.829Z,5.43
2017-09-25T06:30:58.291Z,3.53
2017-09-25T06:33:27.486Z,3.58
2017-09-25T06:35:56.076Z,2.97
2017-09-25T06:38:24.419Z,4.17
2017-09-25T06:40:52.750Z,3.50
2017-09-25T06:43:21.104Z,3.60
2017-09-25T06:45:49.438Z,5.03
2017-09-25T06:48:18.535Z,3.80
2017-09-25T06:50:47.657Z,3.20
2017-09-25T06:53:15.979Z,3.40
2017-09-25T06:55:44.488Z,3.40
2017-09-25T06:58:12.847Z,3.50
2017-09-25T07:00:41.183Z,11.47
2017-09-25T07:03:09.514Z,4.23
2017-09-25T07:05:37.872Z,4.40
2017-09-25T07:08:06.200Z,3.10
2017-09-25T07:10:35.297Z,3.17
2017-09-25T07:13:04.431Z,5.10
2017-09-25T07:15:32.766Z,4.17
2017-09-25T07:18:01.101Z,3.85
2017-09-25T07:20:29.456Z,4.23
2017-09-25T07:22:57.800Z,3.63
2017-09-25T07:25:26.131Z,4.47
2017-09-25T07:27:54.491Z,4.78
2017-09-25T07:30:23.588Z,4.50
2017-09-25T07:32:52.679Z,4.00
2017-09-25T07:35:21.056Z,4.37
2017-09-25T07:37:50.176Z,4.43
2017-09-25T07:40:18.520Z,3.70
2017-09-25T07:42:46.871Z,4.53
2017-09-25T07:45:15.207Z,6.20
2017-09-25T07:47:43.544Z,4.32
2017-09-25T07:50:11.965Z,5.30
2017-09-25T07:52:41.065Z,3.93
2017-09-25T07:55:09.407Z,4.87
2017-09-25T07:57:37.768Z,3.97
2017-09-25T08:00:06.136Z,4.87
2017-09-25T08:02:34.470Z,4.87
2017-09-25T08:05:03.612Z,3.50
2017-09-25T08:07:31.943Z,4.53
2017-09-25T08:10:01.047Z,4.60
2017-09-25T08:12:30.188Z,4.17
2017-09-25T08:14:58.527Z,3.20
2017-09-25T08:17:27.622Z,3.67
2017-09-25T08:19:56.740Z,4.10
2017-09-25T08:22:25.076Z,3.73
2017-09-25T08:24:53.420Z,3.50
2017-09-25T08:27:21.775Z,3.07
2017-09-25T08:29:50.171Z,2.03
2017-09-25T08:32:18.500Z,3.20
2017-09-25T08:34:46.887Z,2.03
2017-09-25T08:37:15.219Z,2.87
2017-09-25T08:39:43.551Z,1.92
2017-09-25T08:42:11.906Z,2.80
2017-09-25T08:44:40.269Z,1.90
2017-09-25T08:47:08.618Z,5.00
2017-09-25T08:49:37.756Z,3.00
2017-09-25T08:52:06.089Z,3.25
2017-09-25T08:54:35.217Z,2.10
2017-09-25T08:57:03.590Z,2.35
2017-09-25T08:59:31.961Z,2.20
2017-09-25T09:02:00.301Z,2.72
2017-09-25T09:04:28.663Z,3.33
2017-09-25T09:06:57.003Z,2.40
2017-09-25T09:09:25.337Z,2.30
2017-09-25T09:11:54.556Z,2.13
2017-09-25T09:14:22.883Z,2.13
2017-09-25T09:16:51.240Z,1.93
2017-09-25T09:19:19.576Z,2.50
2017-09-25T09:21:47.899Z,4.30
2017-09-25T09:24:17.023Z,2.07
2017-09-25T09:26:45.355Z,2.80
2017-09-25T09:29:13.705Z,3.20
2017-09-25T09:31:42.651Z,2.47
2017-09-25T09:34:10.987Z,2.30
2017-09-25T09:36:39.331Z,3.50
2017-09-25T09:39:07.691Z,2.23
2017-09-25T09:41:36.051Z,1.87
2017-09-25T09:44:05.166Z,1.70
2017-09-25T09:46:34.283Z,4.50
2017-09-25T09:49:02.638Z,2.47
2017-09-25T09:51:31.780Z,2.10
2017-09-25T09:54:00.136Z,2.17
2017-09-25T09:56:28.480Z,2.53
2017-09-25T09:58:56.865Z,1.50
2017-09-25T10:01:25.247Z,2.70
2017-09-25T10:03:55.584Z,2.13
2017-09-25T10:06:24.714Z,2.07
2017-09-25T10:08:53.067Z,2.13
2017-09-25T10:11:22.177Z,1.60
2017-09-25T10:13:50.548Z,2.30
2017-09-25T10:16:19.651Z,2.27
2017-09-25T10:18:48.757Z,1.90
2017-09-25T10:21:17.113Z,2.03
2017-09-25T10:23:46.236Z,2.73
2017-09-25T10:26:14.576Z,3.33
2017-09-25T10:28:42.933Z,3.30
2017-09-25T10:31:11.272Z,3.50
2017-09-25T10:33:39.605Z,4.13
2017-09-25T10:36:07.963Z,4.13
2017-09-25T10:38:36.297Z,5.00
2017-09-25T10:41:05.425Z,3.40
2017-09-25T10:43:33.769Z,6.23
2017-09-25T10:46:02.134Z,3.92
2017-09-25T10:48:30.519Z,3.50
2017-09-25T10:50:58.855Z,4.23
2017-09-25T10:53:27.189Z,3.50
2017-09-25T10:55:57.562Z,3.60
2017-09-25T10:58:25.924Z,3.67
2017-09-25T11:00:54.285Z,9.20
2017-09-25T11:03:23.391Z,4.10
2017-09-25T11:05:51.766Z,3.53
2017-09-25T11:08:20.914Z,2.93
2017-09-25T11:10:49.256Z,3.80
2017-09-25T11:13:18.363Z,3.23
2017-09-25T11:15:46.737Z,3.97
2017-09-25T11:18:15.072Z,4.70
2017-09-25T11:20:43.408Z,3.60
2017-09-25T11:23:11.802Z,4.87
2017-09-25T11:25:40.152Z,4.30
2017-09-25T11:28:09.267Z,4.35
2017-09-25T11:30:37.631Z,5.83
2017-09-25T11:33:06.738Z,4.70
2017-09-25T11:35:35.073Z,6.10
2017-09-25T11:38:03.459Z,4.60
2017-09-25T11:40:31.819Z,4.33
2017-09-25T11:43:00.148Z,4.63
2017-09-25T11:45:29.284Z,3.80
2017-09-25T11:47:57.871Z,4.80
2017-09-25T11:50:26.208Z,4.30
2017-09-25T11:52:55.343Z,3.77
2017-09-25T11:55:23.691Z,5.60
2017-09-25T11:57:52.815Z,6.20
2017-09-25T12:00:21.172Z,5.73
2017-09-25T12:02:50.288Z,5.00
2017-09-25T12:05:18.638Z,4.90
2017-09-25T12:07:47.020Z,5.68
2017-09-25T12:10:16.142Z,5.85
2017-09-25T12:12:44.480Z,5.40
2017-09-25T12:15:12.861Z,5.93
2017-09-25T12:17:41.193Z,5.83
2017-09-25T12:20:09.524Z,4.70
2017-09-25T12:22:37.888Z,5.70
2017-09-25T12:25:06.224Z,5.90
2017-09-25T12:27:34.568Z,4.77
2017-09-25T12:30:02.938Z,10.10
2017-09-25T12:32:31.276Z,5.77
2017-09-25T12:34:59.609Z,4.53
2017-09-25T12:37:27.971Z,5.67
2017-09-25T12:39:56.301Z,6.90
2017-09-25T12:42:24.638Z,5.70
2017-09-25T12:44:53.001Z,4.77
2017-09-25T12:47:21.328Z,6.50
2017-09-25T12:49:50.429Z,5.83
2017-09-25T12:52:19.594Z,5.97
2017-09-25T12:54:47.959Z,7.60
2017-09-25T12:57:16.291Z,5.87
2017-09-25T13:02:27.393Z,6.63
2017-09-25T13:04:55.800Z,8.50
2017-09-25T13:07:24.131Z,11.23
2017-09-25T13:09:53.482Z,7.40
2017-09-25T13:12:21.852Z,7.63
2017-09-25T13:14:50.188Z,5.60
2017-09-25T13:17:18.518Z,7.57
2017-09-25T13:19:46.879Z,7.77
2017-09-25T13:22:15.212Z,7.30
2017-09-25T13:24:43.555Z,6.07
2017-09-25T13:27:11.927Z,6.97
2017-09-25T13:29:40.343Z,8.83
2017-09-25T13:32:08.701Z,8.30
2017-09-25T13:34:37.037Z,10.47
2017-09-25T13:37:05.369Z,9.10
2017-09-25T13:39:33.723Z,7.83
2017-09-25T13:42:02.066Z,8.60
2017-09-25T13:44:30.401Z,7.80
2017-09-25T13:46:58.761Z,8.73
2017-09-25T13:49:27.135Z,7.27
2017-09-25T13:51:57.025Z,8.43
2017-09-25T13:54:25.364Z,9.70
2017-09-25T13:56:53.691Z,8.93
2017-09-25T14:04:29.156Z,8.07
2017-09-25T14:06:57.514Z,10.80
2017-09-25T14:09:25.860Z,7.63
2017-09-25T14:11:54.268Z,9.00
2017-09-25T14:14:22.610Z,7.70
2017-09-25T14:16:51.727Z,8.30
2017-09-25T14:19:20.083Z,12.10
2017-09-25T14:21:49.184Z,8.60
2017-09-25T14:24:18.284Z,8.02
2017-09-25T14:26:47.427Z,7.63
2017-09-25T14:29:15.795Z,8.23
2017-09-25T14:31:44.128Z,8.17
2017-09-25T14:34:12.484Z,7.60
2017-09-25T14:36:40.820Z,7.73
2017-09-25T14:39:09.152Z,8.57
2017-09-25T14:41:37.508Z,8.17
2017-09-25T14:44:05.882Z,7.53
2017-09-25T14:46:34.243Z,7.07
2017-09-25T14:49:02.613Z,7.50
2017-09-25T14:51:31.755Z,6.67
2017-09-25T14:54:00.099Z,6.47
2017-09-25T14:56:28.476Z,6.53
2017-09-25T14:58:56.822Z,6.17
2017-09-25T15:01:25.151Z,7.30
2017-09-25T15:03:53.508Z,7.83
2017-09-25T15:06:22.607Z,6.32
2017-09-25T15:08:51.735Z,6.50
2017-09-25T15:11:20.077Z,6.80
2017-09-25T15:13:49.186Z,7.43
2017-09-25T15:16:18.332Z,8.20
2017-09-25T15:18:46.726Z,6.07
2017-09-25T15:21:15.260Z,6.80
2017-09-25T15:23:43.626Z,6.13
2017-09-25T15:26:12.736Z,6.50
2017-09-25T15:28:41.843Z,7.50
2017-09-25T15:31:10.223Z,7.03
2017-09-25T15:33:38.555Z,9.43
2017-09-25T15:36:06.890Z,7.63
2017-09-25T15:38:35.262Z,6.97
2017-09-25T15:41:03.612Z,6.60
2017-09-25T15:43:32.775Z,8.33
2017-09-25T15:46:01.164Z,7.37
2017-09-25T15:48:29.508Z,7.78
2017-09-25T15:50:57.849Z,6.57
2017-09-25T15:53:26.287Z,6.60
2017-09-25T15:55:54.643Z,7.10
2017-09-25T15:58:22.971Z,7.00
2017-09-25T16:00:51.329Z,7.10
2017-09-25T16:03:19.667Z,6.60
2017-09-25T16:05:48.772Z,7.10
2017-09-25T16:08:17.900Z,6.68
2017-09-25T16:10:46.239Z,7.43
2017-09-25T16:13:15.347Z,8.07
2017-09-25T16:15:46.256Z,8.10
2017-09-25T16:18:14.680Z,9.70
2017-09-25T16:20:43.011Z,6.53
2017-09-25T16:23:11.381Z,7.43
2017-09-25T16:25:39.715Z,7.60
2017-09-25T16:28:08.112Z,7.27
2017-09-25T16:30:36.450Z,7.20
2017-09-25T16:33:04.827Z,6.50
2017-09-25T16:35:33.174Z,7.07
2017-09-25T16:38:01.545Z,7.10
2017-09-25T16:40:29.941Z,8.57
2017-09-25T16:42:58.311Z,9.10
2017-09-25T16:45:26.682Z,9.43
2017-09-25T16:47:55.039Z,8.53
2017-09-25T16:50:24.165Z,6.10
2017-09-25T16:52:52.504Z,7.73
2017-09-25T16:55:21.650Z,8.40
2017-09-25T16:57:49.980Z,6.80
2017-09-25T17:00:19.107Z,8.95
2017-09-25T17:02:47.473Z,8.40
2017-09-25T17:05:16.568Z,6.75
2017-09-25T17:07:44.911Z,7.40
2017-09-25T17:10:13.272Z,7.77
2017-09-25T17:12:41.654Z,9.23
2017-09-25T17:15:09.975Z,8.27
2017-09-25T17:17:39.137Z,7.63
2017-09-25T17:20:07.473Z,10.20
2017-09-25T17:22:36.598Z,8.10
2017-09-25T17:25:04.975Z,11.83
2017-09-25T17:27:33.345Z,7.90
2017-09-25T17:30:02.442Z,9.27
2017-09-25T17:32:30.802Z,8.13
2017-09-25T17:34:59.910Z,9.50
2017-09-25T17:37:28.265Z,7.80
2017-09-25T17:39:56.629Z,11.50
2017-09-25T17:42:24.967Z,10.13
2017-09-25T17:44:53.330Z,9.40
2017-09-25T17:47:22.449Z,11.33
2017-09-25T17:49:50.801Z,9.13
2017-09-25T17:52:19.913Z,10.48
2017-09-25T17:54:48.316Z,9.63
2017-09-25T17:57:16.676Z,9.57
2017-09-25T17:59:45.016Z,12.67
2017-09-25T18:02:13.387Z,10.17
2017-09-25T18:04:41.722Z,11.43
2017-09-25T18:07:10.102Z,11.97
2017-09-25T18:09:38.436Z,11.60
2017-09-25T18:12:06.776Z,14.30
2017-09-25T18:14:35.148Z,7.90
2017-09-25T18:17:03.500Z,12.43
2017-09-25T18:19:31.832Z,9.13
2017-09-25T18:22:00.992Z,10.17
2017-09-25T18:24:30.105Z,10.77
2017-09-25T18:26:58.438Z,11.23
2017-09-25T18:29:26.812Z,13.33
2017-09-25T18:31:55.157Z,12.33
2017-09-25T18:34:23.494Z,13.70
2017-09-25T18:36:52.634Z,11.60
2017-09-25T18:39:20.975Z,14.07
2017-09-25T18:41:50.088Z,12.70
2017-09-25T18:44:18.473Z,12.50
2017-09-25T18:46:46.808Z,11.90
2017-09-25T18:49:15.212Z,10.23
2017-09-25T18:51:44.327Z,11.53
2017-09-25T18:54:13.595Z,11.90
2017-09-25T18:56:41.965Z,11.50
2017-09-25T18:59:10.313Z,12.70
2017-09-25T19:01:38.644Z,9.77
2017-09-25T19:04:07.020Z,12.20
2017-09-25T19:06:36.161Z,13.07
2017-09-25T19:09:04.560Z,11.33
2017-09-25T19:11:32.911Z,10.60
2017-09-25T19:14:02.007Z,11.20
2017-09-25T19:16:31.157Z,12.77
2017-09-25T19:18:59.512Z,12.48
2017-09-25T19:21:27.882Z,11.70
2017-09-25T19:23:57.293Z,15.60
2017-09-25T19:26:26.463Z,15.40
2017-09-25T19:28:55.598Z,11.70
2017-09-25T19:31:23.940Z,13.40
2017-09-25T19:33:53.058Z,19.10
2017-09-25T19:36:21.429Z,11.38
2017-09-25T19:38:50.544Z,14.60
2017-09-25T19:41:19.204Z,10.80
2017-09-25T19:43:48.545Z,10.77
2017-09-25T19:46:16.911Z,13.87
2017-09-25T19:48:55.215Z,11.40
2017-09-25T19:51:24.760Z,12.43
2017-09-25T19:53:54.478Z,10.50
2017-09-25T19:56:22.815Z,14.18
2017-09-25T19:58:51.367Z,12.97
2017-09-25T20:01:20.020Z,12.70
2017-09-25T20:03:48.362Z,14.37
2017-09-25T20:06:18.723Z,11.67
2017-09-25T20:08:47.251Z,9.60
2017-09-25T20:11:16.402Z,10.60
2017-09-25T20:13:45.024Z,11.50
2017-09-25T20:16:25.305Z,14.27
2017-09-25T20:18:54.411Z,9.70
2017-09-25T20:21:23.613Z,15.77
2017-09-25T20:23:52.753Z,14.40
2017-09-25T20:26:21.195Z,13.00
2017-09-25T20:28:50.323Z,12.40
2017-09-25T20:31:18.748Z,14.03
2017-09-25T20:33:47.104Z,9.40
2017-09-25T20:36:15.447Z,13.20
2017-09-25T20:38:43.931Z,11.10
2017-09-25T20:41:13.242Z,12.20
2017-09-25T20:43:41.595Z,11.40
2017-09-25T20:46:10.739Z,11.70
2017-09-25T20:48:39.087Z,10.70
2017-09-25T20:51:08.203Z,11.10
2017-09-25T20:53:36.572Z,10.63
2017-09-25T20:56:04.920Z,12.43
2017-09-25T20:58:33.288Z,11.05
2017-09-25T21:01:01.670Z,11.77
2017-09-25T21:03:30.018Z,8.53
2017-09-25T21:05:58.417Z,10.77
2017-09-25T21:08:26.832Z,10.45
2017-09-25T21:10:55.207Z,11.20
2017-09-25T21:13:23.612Z,10.70
2017-09-25T21:15:52.000Z,11.57
2017-09-25T21:18:20.655Z,10.87
2017-09-25T21:20:49.036Z,12.60
2017-09-25T21:23:17.374Z,11.40
2017-09-25T21:25:46.600Z,12.60
2017-09-25T21:28:15.015Z,10.03
2017-09-25T21:30:44.121Z,11.33
2017-09-25T21:33:12.501Z,12.80
2017-09-25T21:35:41.621Z,10.10
2017-09-25T21:38:09.993Z,12.03
2017-09-25T21:40:38.356Z,9.27
2017-09-25T21:43:07.452Z,10.97
2017-09-25T21:45:36.549Z,9.67
2017-09-25T21:48:05.706Z,13.00
2017-09-25T21:50:34.069Z,15.65
2017-09-25T21:53:02.447Z,17.07
2017-09-25T21:55:30.787Z,21.90
2017-09-25T21:57:59.924Z,17.93
2017-09-25T22:00:28.405Z,25.85
2017-09-25T22:02:56.803Z,15.03
2017-09-25T22:05:25.243Z,15.90
2017-09-25T22:07:53.633Z,15.90
2017-09-25T22:10:22.622Z,19.87
2017-09-25T22:12:51.788Z,15.33
2017-09-25T22:15:20.136Z,15.77
2017-09-25T22:17:48.552Z,19.13
2017-09-25T22:20:16.937Z,18.20
2017-09-25T22:22:45.280Z,17.60
2017-09-25T22:25:13.619Z,20.33
2017-09-25T22:27:42.748Z,22.37
2017-09-25T22:30:11.134Z,15.43
2017-09-25T22:32:39.616Z,19.55
2017-09-25T22:35:08.120Z,15.97
2017-09-25T22:37:37.263Z,19.50
2017-09-25T22:40:06.501Z,15.82
2017-09-25T22:42:38.478Z,15.90
2017-09-25T22:45:06.957Z,21.30
2017-09-25T22:47:35.343Z,11.13
2017-09-25T22:50:03.815Z,16.13
2017-09-25T22:52:32.224Z,11.73
2017-09-25T22:55:00.612Z,12.37
2017-09-25T22:57:29.007Z,14.20
2017-09-25T22:59:58.132Z,10.90
2017-09-25T23:02:26.544Z,16.83
2017-09-25T23:05:09.789Z,11.33
2017-09-25T23:07:38.196Z,10.57
2017-09-25T23:10:08.351Z,12.55
2017-09-25T23:12:36.783Z,12.65
2017-09-25T23:15:05.153Z,12.20
2017-09-25T23:17:33.617Z,13.20
2017-09-25T23:20:01.980Z,18.17
2017-09-25T23:22:30.358Z,17.43
2017-09-25T23:24:58.704Z,15.83
2017-09-25T23:27:27.083Z,16.93
2017-09-25T23:29:59.855Z,17.90
2017-09-25T23:32:29.445Z,20.10
2017-09-25T23:34:57.811Z,23.60
2017-09-25T23:37:26.139Z,18.63
2017-09-25T23:39:54.503Z,15.30
2017-09-25T23:44:57.493Z,20.25
2017-09-25T23:47:25.847Z,18.90
2017-09-25T23:49:54.206Z,15.13
2017-09-25T23:52:23.321Z,16.40
2017-09-25T23:54:51.687Z,18.30
2017-09-25T23:57:20.811Z,23.27
2017-09-25T23:59:49.143Z,18.37
